ESGJ

Jönköping Airport

Jönköping, Sweden
TAF ESGJ 230830Z 2309/2318 15015KT 9999 SCT009 BKN025 TEMPO 2309/2312 17015G25KT 4000 SHRA TS BKN008 BKN025CB BECMG 2312/2314 25015G25KT
Issued Valid From Valid To
Apr-23 @ 08:30 UTC
(an hour ago)
Apr-23 @ 09:00 UTC
(37 minutes ago)
Apr-23 @ 18:00 UTC
(in 8 hours)
Apr-23 @ 09:00 to Apr-23 @ 12:00
TAF ESGJ 230830Z 2309/2318 15015KT 9999 SCT009 BKN025
Wind Visibility Clouds
150° at 15 knots 10,000+ meters
  • Scattered at 900' AGL
  • Broken at 2,500' AGL
Temporary Apr-23 @ 09:00 to Apr-23 @ 12:00
TEMPO 2309/2312 17015G25KT 4000 SHRA TS BKN008 BKN025CB
Wind Visibility Clouds Conditions
170° at 15 knots
 Gusting to 25 knots
4,007 meters
  • Broken at 800' AGL
  • Broken at 2,500' AGL
  • Rain
  • Thunderstorm
Becoming Apr-23 @ 12:00 to Apr-23 @ 18:00
BECMG 2312/2314 25015G25KT
Wind Visibility Clouds
250° at 15 knots
 Gusting to 25 knots
10,000+ meters
  • Scattered at 900' AGL
  • Broken at 2,500' AGL
TAF ESGJ 230830Z 2309/2318 15015KT 9999 SCT009 BKN025 TEMPO 2309/2312 17015G25KT 4000 SHRA TS BKN008 BKN025CB BECMG 2312/2314 25015G25KT
Issued Apr-23 @ 08:30 UTC
(an hour ago)
Valid From Apr-23 @ 09:00 UTC
(37 minutes ago)
Valid To Apr-23 @ 18:00 UTC
(in 8 hours)
Apr-23 @ 09:00 - Apr-23 @ 12:00
Wind Visibility
150° at 15 knots 10,000+ meters
Clouds
  • Scattered at 900' AGL
  • Broken at 2,500' AGL
Temporary Apr-23 @ 09:00 - Apr-23 @ 12:00
Wind Visibility
170° at 15 knots
 Gusting to 25 knots
4,007 meters
Clouds
  • Broken at 800' AGL
  • Broken at 2,500' AGL
Conditions
  • Rain
  • Thunderstorm
Becoming Apr-23 @ 12:00 - Apr-23 @ 18:00
Wind Visibility
250° at 15 knots
 Gusting to 25 knots
10,000+ meters
Clouds
  • Scattered at 900' AGL
  • Broken at 2,500' AGL